createdAt,value
2023-02-25T00:02:41.461Z,95032.81
2023-02-25T00:05:31.850Z,95035.00
2023-02-25T00:08:22.416Z,95030.94
2023-02-25T00:11:13.485Z,95021.03
2023-02-25T00:14:03.537Z,95027.66
2023-02-25T00:16:56.014Z,95030.13
2023-02-25T00:19:46.719Z,95027.66
2023-02-25T00:22:36.070Z,95033.84
2023-02-25T00:25:25.523Z,95028.16
2023-02-25T00:28:16.652Z,95036.78
2023-02-25T00:31:08.041Z,95041.91
2023-02-25T00:33:58.133Z,95039.00
2023-02-25T00:36:46.864Z,95035.16
2023-02-25T00:39:43.417Z,95028.97
2023-02-25T00:42:32.280Z,95022.78
2023-02-25T00:45:22.934Z,95022.59
2023-02-25T00:48:12.388Z,95035.34
2023-02-25T00:51:08.690Z,95038.84
2023-02-25T00:53:57.927Z,95033.25
2023-02-25T00:56:47.337Z,95041.06
2023-02-25T00:59:36.167Z,95060.81
2023-02-25T01:02:27.654Z,95037.03
2023-02-25T01:05:16.849Z,95049.03
2023-02-25T01:08:06.592Z,95054.66
2023-02-25T01:10:55.222Z,95043.56
2023-02-25T01:13:45.625Z,95031.66
2023-02-25T01:16:35.903Z,95025.72
2023-02-25T01:19:28.638Z,95018.97
2023-02-25T01:22:18.655Z,95030.97
2023-02-25T01:25:07.999Z,95043.81
2023-02-25T01:28:00.699Z,95049.88
2023-02-25T01:30:49.534Z,95053.38
2023-02-25T01:33:41.739Z,95055.00
2023-02-25T01:36:32.650Z,95060.72
2023-02-25T01:39:22.984Z,95060.13
2023-02-25T01:42:15.465Z,95054.09
2023-02-25T01:45:40.275Z,95063.88
2023-02-25T01:48:33.508Z,95061.91
2023-02-25T01:51:27.579Z,95065.19
2023-02-25T01:54:18.719Z,95053.78
2023-02-25T01:57:12.970Z,95074.84
2023-02-25T02:00:02.019Z,95068.44
2023-02-25T02:03:02.575Z,95060.03
2023-02-25T02:06:00.146Z,95064.13
2023-02-25T02:08:49.676Z,95059.25
2023-02-25T02:11:40.644Z,95077.78
2023-02-25T02:14:34.240Z,95059.13
2023-02-25T02:17:30.177Z,95064.94
2023-02-25T02:20:25.242Z,95045.63
2023-02-25T02:23:49.263Z,95072.53
2023-02-25T02:26:52.075Z,95066.38
2023-02-25T02:30:14.035Z,95074.41
2023-02-25T02:33:11.515Z,95067.06
2023-02-25T02:36:09.549Z,95064.63
2023-02-25T02:39:06.086Z,95067.06
2023-02-25T02:42:02.737Z,95059.84
2023-02-25T02:44:59.083Z,95067.75
2023-02-25T02:47:52.449Z,95074.53
2023-02-25T02:50:46.835Z,95065.88
2023-02-25T02:53:39.251Z,95072.19
2023-02-25T02:56:33.300Z,95070.56
2023-02-25T02:59:28.042Z,95073.84
2023-02-25T03:02:23.106Z,95079.66
2023-02-25T03:05:17.427Z,95090.38
2023-02-25T03:08:12.153Z,95083.88
2023-02-25T03:11:00.894Z,95076.50
2023-02-25T03:13:52.447Z,95070.78
2023-02-25T03:16:46.880Z,95074.44
2023-02-25T03:19:41.396Z,95075.44
2023-02-25T03:22:34.819Z,95071.97
2023-02-25T03:25:29.098Z,95077.44
2023-02-25T03:28:30.336Z,95083.16
2023-02-25T03:31:25.951Z,95076.06
2023-02-25T03:34:20.056Z,95069.75
2023-02-25T03:37:15.895Z,95075.34
2023-02-25T03:40:11.394Z,95086.31
2023-02-25T03:43:08.499Z,95084.66
2023-02-25T03:45:58.170Z,95107.50
2023-02-25T03:48:50.159Z,95106.91
2023-02-25T03:51:42.824Z,95107.84
2023-02-25T03:54:32.583Z,95104.34
2023-02-25T03:57:25.442Z,95093.13
2023-02-25T04:00:19.939Z,95112.13
2023-02-25T04:03:09.866Z,95127.38
2023-02-25T04:05:58.571Z,95136.81
2023-02-25T04:08:47.361Z,95145.56
2023-02-25T04:11:36.198Z,95146.47
2023-02-25T04:14:25.414Z,95127.16
2023-02-25T04:17:15.429Z,95134.66
2023-02-25T04:20:06.705Z,95135.94
2023-02-25T04:22:55.350Z,95136.66
2023-02-25T04:25:45.067Z,95127.19
2023-02-25T04:28:33.717Z,95146.03
2023-02-25T04:31:23.450Z,95150.56
2023-02-25T04:34:13.558Z,95156.97
2023-02-25T04:37:05.110Z,95158.94
2023-02-25T04:39:53.739Z,95162.66
2023-02-25T04:42:43.569Z,95171.72
2023-02-25T04:45:32.605Z,95164.03
2023-02-25T04:48:24.161Z,95167.09
2023-02-25T04:51:16.376Z,95156.16
2023-02-25T04:54:06.425Z,95164.19
2023-02-25T04:56:56.811Z,95171.66
2023-02-25T04:59:45.417Z,95164.44
2023-02-25T05:02:35.074Z,95155.19
2023-02-25T05:05:23.707Z,95175.72
2023-02-25T05:08:14.894Z,95179.69
2023-02-25T05:11:04.833Z,95181.97
2023-02-25T05:13:56.238Z,95179.88
2023-02-25T05:16:45.322Z,95181.16
2023-02-25T05:19:35.430Z,95181.81
2023-02-25T05:22:24.031Z,95191.50
2023-02-25T05:25:14.988Z,95181.00
2023-02-25T05:28:05.413Z,95187.31
2023-02-25T05:30:56.127Z,95181.97
2023-02-25T05:33:45.841Z,95180.72
2023-02-25T05:36:34.955Z,95163.22
2023-02-25T05:39:24.045Z,95166.00
2023-02-25T05:42:14.050Z,95177.91
2023-02-25T05:45:02.718Z,95165.31
2023-02-25T05:47:51.364Z,95175.81
2023-02-25T05:50:41.251Z,95190.81
2023-02-25T05:53:31.554Z,95180.50
2023-02-25T05:56:23.179Z,95180.50
2023-02-25T05:59:13.923Z,95183.28
2023-02-25T06:02:02.990Z,95183.16
2023-02-25T06:04:54.007Z,95194.22
2023-02-25T06:07:43.017Z,95200.03
2023-02-25T06:10:39.509Z,95201.91
2023-02-25T06:13:28.158Z,95203.97
2023-02-25T06:16:18.935Z,95205.25
2023-02-25T06:19:07.968Z,95213.34
2023-02-25T06:21:57.393Z,95221.16
2023-02-25T06:24:46.046Z,95226.97
2023-02-25T06:27:35.165Z,95230.94
2023-02-25T06:30:23.845Z,95221.13
2023-02-25T06:33:14.168Z,95227.28
2023-02-25T06:36:03.509Z,95219.31
2023-02-25T06:38:53.106Z,95222.75
2023-02-25T06:41:41.743Z,95237.41
2023-02-25T06:44:30.947Z,95244.16
2023-02-25T06:47:19.582Z,95231.00
2023-02-25T06:50:10.874Z,95243.34
2023-02-25T06:53:00.135Z,95244.38
2023-02-25T06:55:49.525Z,95237.25
2023-02-25T06:58:39.473Z,95239.25
2023-02-25T07:01:28.385Z,95238.13
2023-02-25T07:04:20.381Z,95230.69
2023-02-25T07:07:10.794Z,95238.13
2023-02-25T07:09:59.567Z,95238.13
2023-02-25T07:12:49.082Z,95255.81
2023-02-25T07:15:38.036Z,95249.66
2023-02-25T07:18:28.156Z,95254.78
2023-02-25T07:21:17.874Z,95255.16
2023-02-25T07:24:08.957Z,95258.34
2023-02-25T07:26:57.653Z,95246.44
2023-02-25T07:29:46.953Z,95253.97
2023-02-25T07:32:35.664Z,95264.22
2023-02-25T07:35:25.888Z,95265.72
2023-02-25T07:38:14.557Z,95254.78
2023-02-25T07:41:07.243Z,95270.88
2023-02-25T07:43:56.890Z,95273.56
2023-02-25T07:46:45.522Z,95270.47
2023-02-25T07:49:34.931Z,95264.44
2023-02-25T07:52:23.974Z,95266.59
2023-02-25T07:55:12.782Z,95268.28
2023-02-25T07:58:02.832Z,95274.94
2023-02-25T08:00:52.662Z,95264.81
2023-02-25T08:03:41.569Z,95281.03
2023-02-25T08:06:31.508Z,95269.34
2023-02-25T08:09:20.143Z,95282.75
2023-02-25T08:12:09.287Z,95267.34
2023-02-25T08:15:02.029Z,95271.31
2023-02-25T08:17:53.278Z,95259.19
2023-02-25T08:20:46.776Z,95240.63
2023-02-25T08:23:35.907Z,95258.50
2023-02-25T08:26:27.430Z,95265.06
2023-02-25T08:29:16.882Z,95247.75
2023-02-25T08:32:08.492Z,95263.78
2023-02-25T08:34:58.006Z,95274.41
2023-02-25T08:37:47.126Z,95266.34
2023-02-25T08:40:35.746Z,95254.97
2023-02-25T08:43:24.735Z,95256.63
2023-02-25T08:46:13.749Z,95248.09
2023-02-25T08:49:04.782Z,95255.78
2023-02-25T08:51:53.487Z,95256.56
2023-02-25T08:54:42.461Z,95256.22
2023-02-25T08:57:33.049Z,95264.97
2023-02-25T09:00:22.683Z,95264.31
2023-02-25T09:03:11.806Z,95268.75
2023-02-25T09:06:02.257Z,95269.00
2023-02-25T09:08:52.394Z,95261.28
2023-02-25T09:11:41.340Z,95278.56
2023-02-25T09:14:29.973Z,95263.41
2023-02-25T09:17:18.688Z,95264.06
2023-02-25T09:20:11.876Z,95267.31
2023-02-25T09:23:02.309Z,95282.47
2023-02-25T09:25:51.217Z,95266.13
2023-02-25T09:28:40.352Z,95261.97
2023-02-25T09:31:29.290Z,95278.25
2023-02-25T09:34:18.283Z,95263.13
2023-02-25T09:37:09.925Z,95257.44
2023-02-25T09:39:59.959Z,95265.34
2023-02-25T09:43:00.058Z,95255.81
2023-02-25T09:45:52.843Z,95271.25
2023-02-25T09:48:50.594Z,95261.81
2023-02-25T09:51:44.538Z,95271.41
2023-02-25T09:54:38.428Z,95260.34
2023-02-25T09:57:30.064Z,95251.66
2023-02-25T10:00:20.993Z,95252.72
2023-02-25T10:03:24.007Z,95257.06
2023-02-25T10:06:20.583Z,95235.09
2023-02-25T10:09:19.805Z,95248.50
2023-02-25T10:12:21.247Z,95250.81
2023-02-25T10:15:32.547Z,95232.97
2023-02-25T10:18:34.768Z,95246.72
2023-02-25T10:21:33.836Z,95250.03
2023-02-25T10:24:31.732Z,95238.38
2023-02-25T10:27:25.582Z,95238.06
2023-02-25T10:30:21.232Z,95245.00
2023-02-25T10:33:19.422Z,95255.31
2023-02-25T10:36:11.104Z,95251.41
2023-02-25T10:39:01.282Z,95250.53
2023-02-25T10:41:50.322Z,95248.63
2023-02-25T10:44:39.990Z,95240.34
2023-02-25T10:47:34.802Z,95249.50
2023-02-25T10:50:42.752Z,95252.28
2023-02-25T10:53:34.793Z,95253.81
2023-02-25T10:56:25.371Z,95239.59
2023-02-25T10:59:30.052Z,95240.88
2023-02-25T11:02:25.704Z,95234.50
2023-02-25T11:05:39.017Z,95228.09
2023-02-25T11:08:30.117Z,95238.09
2023-02-25T11:11:22.800Z,95216.56
2023-02-25T11:14:19.139Z,95225.59
2023-02-25T11:17:16.693Z,95226.13
2023-02-25T11:20:06.827Z,95213.50
2023-02-25T11:22:59.093Z,95213.59
2023-02-25T11:25:48.309Z,95217.59
2023-02-25T11:28:41.572Z,95209.19
2023-02-25T11:31:36.389Z,95212.38
2023-02-25T11:34:27.820Z,95218.41
2023-02-25T11:37:36.261Z,95201.78
2023-02-25T11:40:29.355Z,95199.75
2023-02-25T11:43:20.713Z,95198.94
2023-02-25T11:46:14.491Z,95203.25
2023-02-25T11:49:14.291Z,95201.63
2023-02-25T11:52:11.126Z,95198.53
2023-02-25T11:55:12.760Z,95189.34
2023-02-25T11:58:18.037Z,95197.22
2023-02-25T12:01:14.660Z,95189.06
2023-02-25T12:04:20.651Z,95188.09
2023-02-25T12:07:37.452Z,95182.31
2023-02-25T12:11:11.274Z,95183.56
2023-02-25T12:14:42.764Z,95190.69
2023-02-25T12:17:53.909Z,95193.97
2023-02-25T12:21:11.188Z,95194.44
2023-02-25T12:24:36.639Z,95181.91
2023-02-25T12:27:56.691Z,95186.81
2023-02-25T12:31:08.003Z,95186.44
2023-02-25T12:34:28.851Z,95189.94
2023-02-25T12:37:33.836Z,95176.78
2023-02-25T12:40:51.494Z,95178.00
2023-02-25T12:43:49.936Z,95184.31
2023-02-25T12:47:03.383Z,95193.69
2023-02-25T12:50:14.241Z,95193.06
2023-02-25T12:53:24.656Z,95178.19
2023-02-25T12:56:31.271Z,95185.34
2023-02-25T12:59:47.680Z,95197.22
2023-02-25T13:03:03.167Z,95179.25
2023-02-25T13:06:16.363Z,95182.13
2023-02-25T13:09:20.601Z,95177.84
2023-02-25T13:12:27.585Z,95179.59
2023-02-25T13:15:22.379Z,95182.38
2023-02-25T13:18:23.908Z,95182.78
2023-02-25T13:21:26.418Z,95162.19
2023-02-25T13:24:27.912Z,95178.19
2023-02-25T13:27:36.494Z,95159.69
2023-02-25T13:30:39.749Z,95160.59
2023-02-25T13:33:52.882Z,95157.38
2023-02-25T13:36:54.426Z,95161.00
2023-02-25T13:40:02.261Z,95164.72
2023-02-25T13:43:04.592Z,95165.50
2023-02-25T13:46:16.523Z,95156.19
2023-02-25T13:49:26.613Z,95153.53
2023-02-25T13:52:27.839Z,95165.25
2023-02-25T13:55:39.139Z,95162.34
2023-02-25T13:58:41.385Z,95181.03
2023-02-25T14:01:41.575Z,95171.53
2023-02-25T14:05:03.130Z,95180.53
2023-02-25T14:08:03.992Z,95174.31
2023-02-25T14:10:58.816Z,95175.50
2023-02-25T14:14:15.034Z,95180.09
2023-02-25T14:17:45.222Z,95178.44
2023-02-25T14:20:47.458Z,95190.22
2023-02-25T14:23:46.655Z,95196.41
2023-02-25T14:26:43.129Z,95189.50
2023-02-25T14:29:43.842Z,95209.75
2023-02-25T14:32:50.248Z,95199.47
2023-02-25T14:36:00.577Z,95191.34
2023-02-25T14:39:22.100Z,95193.22
2023-02-25T14:42:27.345Z,95195.00
2023-02-25T14:45:21.991Z,95195.91
2023-02-25T14:48:16.112Z,95186.78
2023-02-25T14:51:28.450Z,95210.91
2023-02-25T14:54:47.790Z,95200.00
2023-02-25T14:58:18.319Z,95201.78
2023-02-25T15:01:41.400Z,95195.75
2023-02-25T15:04:53.608Z,95190.00
2023-02-25T15:08:02.941Z,95189.56
2023-02-25T15:11:08.490Z,95205.84
2023-02-25T15:14:27.914Z,95206.44
2023-02-25T15:17:47.987Z,95196.72
2023-02-25T15:20:39.160Z,95205.53
2023-02-25T15:23:50.908Z,95205.78
2023-02-25T15:26:45.803Z,95202.03
2023-02-25T15:29:58.451Z,95204.75
2023-02-25T15:32:52.541Z,95212.88
2023-02-25T15:36:00.424Z,95226.09
2023-02-25T15:38:53.068Z,95224.22
2023-02-25T15:41:58.385Z,95216.31
2023-02-25T15:44:47.467Z,95243.41
2023-02-25T15:47:38.334Z,95259.16
2023-02-25T15:50:54.361Z,95261.06
2023-02-25T15:53:50.815Z,95263.69
2023-02-25T15:56:50.860Z,95276.59
2023-02-25T15:59:45.668Z,95284.88
2023-02-25T16:02:46.586Z,95283.13
2023-02-25T16:05:36.403Z,95245.78
2023-02-25T16:08:28.756Z,95292.91
2023-02-25T16:11:26.187Z,95300.00
2023-02-25T16:14:20.302Z,95303.50
2023-02-25T16:17:19.005Z,95302.66
2023-02-25T16:20:18.494Z,95312.66
2023-02-25T16:23:11.951Z,95323.00
2023-02-25T16:26:09.381Z,95315.78
2023-02-25T16:29:11.929Z,95327.16
2023-02-25T16:32:05.230Z,95336.56
2023-02-25T16:35:00.703Z,95338.13
2023-02-25T16:37:59.219Z,95324.81
2023-02-25T16:40:49.588Z,95346.75
2023-02-25T16:43:41.556Z,95357.19
2023-02-25T16:46:35.832Z,95344.38
2023-02-25T16:49:31.549Z,95351.13
2023-02-25T16:52:26.769Z,95353.50
2023-02-25T16:55:21.839Z,95345.91
2023-02-25T16:58:24.148Z,95348.97
2023-02-25T17:01:23.933Z,95361.38
2023-02-25T17:04:20.117Z,95365.56
2023-02-25T17:07:14.289Z,95357.19
2023-02-25T17:10:06.681Z,95365.66
2023-02-25T17:12:55.766Z,95376.06
2023-02-25T17:15:46.435Z,95378.28
2023-02-25T17:18:37.738Z,95377.13
2023-02-25T17:21:34.103Z,95382.31
2023-02-25T17:24:28.385Z,95370.44
2023-02-25T17:27:17.570Z,95378.66
2023-02-25T17:30:34.738Z,95378.88
2023-02-25T17:33:27.026Z,95376.22
2023-02-25T17:36:18.997Z,95377.47
2023-02-25T17:39:14.691Z,95382.03
2023-02-25T17:42:03.827Z,95392.34
2023-02-25T17:44:52.448Z,95392.56
2023-02-25T17:47:45.113Z,95385.34
2023-02-25T17:50:35.113Z,95396.28
2023-02-25T17:53:38.569Z,95398.09
2023-02-25T17:56:30.887Z,95408.19
2023-02-25T17:59:35.593Z,95415.56
2023-02-25T18:02:34.909Z,95409.84
2023-02-25T18:05:26.039Z,95422.78
2023-02-25T18:08:20.925Z,95427.69
2023-02-25T18:11:25.775Z,95426.44
2023-02-25T18:14:26.877Z,95425.09
2023-02-25T18:17:24.184Z,95432.72
2023-02-25T18:20:29.125Z,95427.38
2023-02-25T18:23:22.053Z,95423.28
2023-02-25T18:26:14.170Z,95413.75
2023-02-25T18:29:03.989Z,95406.78
2023-02-25T18:31:54.394Z,95410.94
2023-02-25T18:34:43.082Z,95425.28
2023-02-25T18:37:35.077Z,95438.47
2023-02-25T18:40:27.113Z,95439.72
2023-02-25T18:43:17.526Z,95445.34
2023-02-25T18:46:07.046Z,95442.91
2023-02-25T18:48:59.070Z,95447.66
2023-02-25T18:51:50.145Z,95455.84
2023-02-25T18:54:41.127Z,95445.59
2023-02-25T18:57:30.212Z,95454.84
2023-02-25T19:00:21.642Z,95450.34
2023-02-25T19:03:16.722Z,95455.47
2023-02-25T19:06:07.979Z,95458.16
2023-02-25T19:08:57.109Z,95444.81
2023-02-25T19:11:46.249Z,95454.03
2023-02-25T19:14:34.907Z,95448.53
2023-02-25T19:17:24.250Z,95458.56
2023-02-25T19:20:14.475Z,95454.44
2023-02-25T19:23:06.144Z,95457.34
2023-02-25T19:25:57.929Z,95460.00
2023-02-25T19:28:48.723Z,95467.22
2023-02-25T19:31:38.312Z,95467.41
2023-02-25T19:34:28.280Z,95461.88
2023-02-25T19:37:19.995Z,95464.75
2023-02-25T19:40:14.736Z,95467.41
2023-02-25T19:43:04.656Z,95472.41
2023-02-25T19:45:54.446Z,95467.06
2023-02-25T19:48:43.067Z,95472.19
2023-02-25T19:51:33.971Z,95470.91
2023-02-25T19:54:25.707Z,95472.56
2023-02-25T19:57:16.791Z,95469.13
2023-02-25T20:00:08.805Z,95463.06
2023-02-25T20:03:00.817Z,95473.53
2023-02-25T20:05:50.300Z,95479.06
2023-02-25T20:08:39.546Z,95479.72
2023-02-25T20:11:29.652Z,95491.84
2023-02-25T20:14:19.622Z,95478.69
2023-02-25T20:17:09.321Z,95481.31
2023-02-25T20:19:57.938Z,95480.44
2023-02-25T20:22:47.648Z,95481.63
2023-02-25T20:25:36.300Z,95484.53
2023-02-25T20:28:26.041Z,95483.94
2023-02-25T20:31:17.913Z,95497.75
2023-02-25T20:34:08.192Z,95493.41
2023-02-25T20:36:59.876Z,95504.13
2023-02-25T20:39:53.395Z,95519.25
2023-02-25T20:42:42.298Z,95530.53
2023-02-25T20:45:32.667Z,95532.22
2023-02-25T20:48:29.076Z,95539.06
2023-02-25T20:51:19.458Z,95509.97
2023-02-25T20:54:09.971Z,95522.38
2023-02-25T20:56:59.327Z,95531.84
2023-02-25T20:59:48.941Z,95529.84
2023-02-25T21:02:45.926Z,95534.97
2023-02-25T21:05:44.205Z,95534.16
2023-02-25T21:08:36.516Z,95532.72
2023-02-25T21:11:26.282Z,95538.69
2023-02-25T21:14:15.362Z,95537.88
2023-02-25T21:17:09.812Z,95535.41
2023-02-25T21:19:58.516Z,95538.69
2023-02-25T21:22:50.286Z,95548.13
2023-02-25T21:25:39.194Z,95538.66
2023-02-25T21:28:30.356Z,95535.19
2023-02-25T21:31:19.069Z,95546.69
2023-02-25T21:34:13.757Z,95542.16
2023-02-25T21:37:02.476Z,95533.94
2023-02-25T21:39:54.049Z,95543.59
2023-02-25T21:42:44.244Z,95545.03
2023-02-25T21:45:33.454Z,95529.19
2023-02-25T21:48:22.472Z,95534.34
2023-02-25T21:51:18.025Z,95540.31
2023-02-25T21:54:07.263Z,95536.22
2023-02-25T21:56:57.278Z,95540.09
2023-02-25T21:59:47.215Z,95543.81
2023-02-25T22:02:36.091Z,95542.97
2023-02-25T22:05:25.358Z,95548.72
2023-02-25T22:08:15.060Z,95541.31
2023-02-25T22:11:06.079Z,95543.78
2023-02-25T22:13:56.363Z,95531.50
2023-02-25T22:16:46.062Z,95551.00
2023-02-25T22:19:34.676Z,95550.78
2023-02-25T22:22:24.978Z,95547.53
2023-02-25T22:25:13.565Z,95545.47
2023-02-25T22:28:05.288Z,95546.72
2023-02-25T22:30:55.551Z,95559.03
2023-02-25T22:33:47.140Z,95556.56
2023-02-25T22:36:35.796Z,95555.75
2023-02-25T22:39:26.286Z,95550.44
2023-02-25T22:42:14.956Z,95553.69
2023-02-25T22:45:04.812Z,95559.47
2023-02-25T22:47:54.806Z,95554.53
2023-02-25T22:50:48.655Z,95557.03
2023-02-25T22:53:37.634Z,95560.28
2023-02-25T22:56:27.650Z,95550.44
2023-02-25T22:59:18.514Z,95555.19
2023-02-25T23:02:07.113Z,95571.19
2023-02-25T23:04:58.694Z,95564.81
2023-02-25T23:07:47.819Z,95566.25
2023-02-25T23:10:36.443Z,95568.94
2023-02-25T23:13:26.700Z,95575.13
2023-02-25T23:16:16.996Z,95573.88
2023-02-25T23:19:06.106Z,95581.47
2023-02-25T23:21:57.580Z,95575.94
2023-02-25T23:24:46.178Z,95587.81
2023-02-25T23:27:35.763Z,95580.63
2023-02-25T23:30:25.185Z,95582.69
2023-02-25T23:33:13.793Z,95587.22
2023-02-25T23:36:07.379Z,95580.25
2023-02-25T23:38:58.240Z,95585.78
2023-02-25T23:44:41.837Z,95590.09
2023-02-25T23:47:31.006Z,95590.69
2023-02-25T23:50:19.774Z,95589.88
2023-02-25T23:53:10.887Z,95589.50
2023-02-25T23:56:06.361Z,95594.00
2023-02-25T23:58:57.305Z,95594.41
